sensor_id;sensor_type;location;lat;lon;timestamp;P1;durP1;ratioP1;P2;durP2;ratioP2
53618;SDS011;68717;53.040;18.488;2023-03-23T00:00:07;41.28;;;29.42;;
53618;SDS011;68717;53.040;18.488;2023-03-23T00:00:25;42.95;;;29.65;;
53618;SDS011;68717;53.040;18.488;2023-03-23T00:00:58;42.00;;;29.00;;
53618;SDS011;68717;53.040;18.488;2023-03-23T00:01:12;40.85;;;28.70;;
53618;SDS011;68717;53.040;18.488;2023-03-23T00:01:30;41.70;;;29.58;;
53618;SDS011;68717;53.040;18.488;2023-03-23T00:01:43;43.53;;;30.48;;
53618;SDS011;68717;53.040;18.488;2023-03-23T00:02:02;43.28;;;29.73;;
53618;SDS011;68717;53.040;18.488;2023-03-23T00:02:14;40.42;;;28.92;;
53618;SDS011;68717;53.040;18.488;2023-03-23T00:02:37;39.83;;;29.17;;
53618;SDS011;68717;53.040;18.488;2023-03-23T00:02:49;40.63;;;29.48;;
53618;SDS011;68717;53.040;18.488;2023-03-23T00:03:03;39.83;;;29.13;;
53618;SDS011;68717;53.040;18.488;2023-03-23T00:03:40;39.53;;;28.13;;
53618;SDS011;68717;53.040;18.488;2023-03-23T00:04:23;41.95;;;29.92;;
53618;SDS011;68717;53.040;18.488;2023-03-23T00:05:09;41.72;;;29.08;;
53618;SDS011;68717;53.040;18.488;2023-03-23T00:05:29;39.65;;;28.10;;
53618;SDS011;68717;53.040;18.488;2023-03-23T00:05:41;39.42;;;27.77;;
53618;SDS011;68717;53.040;18.488;2023-03-23T00:06:03;40.30;;;27.98;;
53618;SDS011;68717;53.040;18.488;2023-03-23T00:06:18;42.88;;;29.05;;
53618;SDS011;68717;53.040;18.488;2023-03-23T00:06:31;42.78;;;29.45;;
53618;SDS011;68717;53.040;18.488;2023-03-23T00:06:44;41.53;;;29.23;;
53618;SDS011;68717;53.040;18.488;2023-03-23T00:06:57;40.42;;;28.75;;
53618;SDS011;68717;53.040;18.488;2023-03-23T00:07:16;39.70;;;28.63;;
53618;SDS011;68717;53.040;18.488;2023-03-23T00:07:32;39.92;;;28.45;;
53618;SDS011;68717;53.040;18.488;2023-03-23T00:07:45;40.65;;;28.13;;
53618;SDS011;68717;53.040;18.488;2023-03-23T00:07:57;41.35;;;28.40;;
53618;SDS011;68717;53.040;18.488;2023-03-23T00:08:13;41.33;;;28.63;;
53618;SDS011;68717;53.040;18.488;2023-03-23T00:08:26;41.15;;;28.63;;
53618;SDS011;68717;53.040;18.488;2023-03-23T00:08:38;40.22;;;28.67;;
53618;SDS011;68717;53.040;18.488;2023-03-23T00:08:56;40.28;;;29.27;;
53618;SDS011;68717;53.040;18.488;2023-03-23T00:09:10;41.00;;;29.25;;
53618;SDS011;68717;53.040;18.488;2023-03-23T00:09:23;41.67;;;29.35;;
53618;SDS011;68717;53.040;18.488;2023-03-23T00:09:35;42.10;;;29.40;;
53618;SDS011;68717;53.040;18.488;2023-03-23T00:09:51;40.63;;;29.05;;
53618;SDS011;68717;53.040;18.488;2023-03-23T00:10:06;40.90;;;28.98;;
53618;SDS011;68717;53.040;18.488;2023-03-23T00:10:19;41.78;;;29.35;;
53618;SDS011;68717;53.040;18.488;2023-03-23T00:10:30;40.78;;;29.30;;
53618;SDS011;68717;53.040;18.488;2023-03-23T00:10:44;41.70;;;29.42;;
53618;SDS011;68717;53.040;18.488;2023-03-23T00:10:59;41.95;;;29.10;;
53618;SDS011;68717;53.040;18.488;2023-03-23T00:11:12;41.05;;;28.20;;
53618;SDS011;68717;53.040;18.488;2023-03-23T00:11:26;39.58;;;28.30;;
53618;SDS011;68717;53.040;18.488;2023-03-23T00:11:40;39.95;;;28.92;;
53618;SDS011;68717;53.040;18.488;2023-03-23T00:11:56;43.20;;;29.20;;
53618;SDS011;68717;53.040;18.488;2023-03-23T00:12:16;44.20;;;29.30;;
53618;SDS011;68717;53.040;18.488;2023-03-23T00:12:29;43.08;;;29.55;;
53618;SDS011;68717;53.040;18.488;2023-03-23T00:12:44;43.30;;;29.70;;
53618;SDS011;68717;53.040;18.488;2023-03-23T00:13:00;42.28;;;29.27;;
53618;SDS011;68717;53.040;18.488;2023-03-23T00:13:14;42.92;;;29.27;;
53618;SDS011;68717;53.040;18.488;2023-03-23T00:13:30;41.50;;;28.80;;
53618;SDS011;68717;53.040;18.488;2023-03-23T00:13:44;40.42;;;28.65;;
53618;SDS011;68717;53.040;18.488;2023-03-23T00:13:57;41.60;;;29.65;;
53618;SDS011;68717;53.040;18.488;2023-03-23T00:14:12;41.63;;;29.38;;
53618;SDS011;68717;53.040;18.488;2023-03-23T00:14:24;41.42;;;29.23;;
53618;SDS011;68717;53.040;18.488;2023-03-23T00:14:36;42.40;;;29.58;;
53618;SDS011;68717;53.040;18.488;2023-03-23T00:14:52;42.67;;;29.55;;
53618;SDS011;68717;53.040;18.488;2023-03-23T00:15:06;42.70;;;29.92;;
53618;SDS011;68717;53.040;18.488;2023-03-23T00:15:23;42.25;;;29.75;;
53618;SDS011;68717;53.040;18.488;2023-03-23T00:15:37;41.38;;;29.42;;
53618;SDS011;68717;53.040;18.488;2023-03-23T00:15:52;41.40;;;29.45;;
53618;SDS011;68717;53.040;18.488;2023-03-23T00:16:04;41.45;;;29.20;;
53618;SDS011;68717;53.040;18.488;2023-03-23T00:16:20;40.42;;;28.95;;
53618;SDS011;68717;53.040;18.488;2023-03-23T00:16:42;41.20;;;29.63;;
53618;SDS011;68717;53.040;18.488;2023-03-23T00:17:06;39.88;;;27.45;;
53618;SDS011;68717;53.040;18.488;2023-03-23T00:17:27;40.83;;;27.95;;
53618;SDS011;68717;53.040;18.488;2023-03-23T00:17:45;40.03;;;28.58;;
53618;SDS011;68717;53.040;18.488;2023-03-23T00:18:07;40.58;;;27.75;;
53618;SDS011;68717;53.040;18.488;2023-03-23T00:18:33;39.78;;;27.77;;
53618;SDS011;68717;53.040;18.488;2023-03-23T00:19:07;40.03;;;27.58;;
53618;SDS011;68717;53.040;18.488;2023-03-23T00:20:07;36.83;;;27.02;;
53618;SDS011;68717;53.040;18.488;2023-03-23T00:20:23;38.35;;;27.17;;
53618;SDS011;68717;53.040;18.488;2023-03-23T00:20:36;38.28;;;27.40;;
53618;SDS011;68717;53.040;18.488;2023-03-23T00:20:51;39.20;;;27.35;;
53618;SDS011;68717;53.040;18.488;2023-03-23T00:21:05;39.85;;;27.30;;
53618;SDS011;68717;53.040;18.488;2023-03-23T00:21:18;39.05;;;27.17;;
53618;SDS011;68717;53.040;18.488;2023-03-23T00:21:31;39.97;;;27.10;;
53618;SDS011;68717;53.040;18.488;2023-03-23T00:21:44;40.83;;;27.10;;
53618;SDS011;68717;53.040;18.488;2023-03-23T00:21:58;40.22;;;27.13;;
53618;SDS011;68717;53.040;18.488;2023-03-23T00:22:12;38.78;;;27.15;;
53618;SDS011;68717;53.040;18.488;2023-03-23T00:22:25;39.35;;;26.95;;
53618;SDS011;68717;53.040;18.488;2023-03-23T00:22:37;39.33;;;27.05;;
53618;SDS011;68717;53.040;18.488;2023-03-23T00:22:49;40.40;;;28.20;;
53618;SDS011;68717;53.040;18.488;2023-03-23T00:23:01;42.00;;;28.23;;
53618;SDS011;68717;53.040;18.488;2023-03-23T00:23:13;41.95;;;28.10;;
53618;SDS011;68717;53.040;18.488;2023-03-23T00:23:29;39.35;;;27.42;;
53618;SDS011;68717;53.040;18.488;2023-03-23T00:23:42;41.33;;;27.40;;
53618;SDS011;68717;53.040;18.488;2023-03-23T00:23:55;41.50;;;27.65;;
53618;SDS011;68717;53.040;18.488;2023-03-23T00:24:09;42.05;;;27.63;;
53618;SDS011;68717;53.040;18.488;2023-03-23T00:24:22;40.30;;;27.63;;
53618;SDS011;68717;53.040;18.488;2023-03-23T00:24:34;40.90;;;28.50;;
53618;SDS011;68717;53.040;18.488;2023-03-23T00:24:46;41.97;;;28.70;;
53618;SDS011;68717;53.040;18.488;2023-03-23T00:24:59;40.45;;;27.35;;
53618;SDS011;68717;53.040;18.488;2023-03-23T00:25:12;39.67;;;26.85;;
53618;SDS011;68717;53.040;18.488;2023-03-23T00:25:27;41.50;;;27.80;;
53618;SDS011;68717;53.040;18.488;2023-03-23T00:25:39;41.33;;;27.55;;
53618;SDS011;68717;53.040;18.488;2023-03-23T00:25:52;41.55;;;27.27;;
53618;SDS011;68717;53.040;18.488;2023-03-23T00:26:05;40.72;;;27.17;;
53618;SDS011;68717;53.040;18.488;2023-03-23T00:26:17;40.33;;;26.95;;
53618;SDS011;68717;53.040;18.488;2023-03-23T00:26:30;38.10;;;26.70;;
53618;SDS011;68717;53.040;18.488;2023-03-23T00:26:45;38.17;;;26.40;;
53618;SDS011;68717;53.040;18.488;2023-03-23T00:26:57;40.00;;;26.55;;
53618;SDS011;68717;53.040;18.488;2023-03-23T00:27:10;38.65;;;26.27;;
53618;SDS011;68717;53.040;18.488;2023-03-23T00:27:23;37.83;;;26.85;;
53618;SDS011;68717;53.040;18.488;2023-03-23T00:27:35;37.88;;;27.23;;
53618;SDS011;68717;53.040;18.488;2023-03-23T00:27:47;39.28;;;27.23;;
53618;SDS011;68717;53.040;18.488;2023-03-23T00:28:00;40.33;;;26.67;;
53618;SDS011;68717;53.040;18.488;2023-03-23T00:28:14;39.45;;;26.58;;
53618;SDS011;68717;53.040;18.488;2023-03-23T00:28:27;38.58;;;26.58;;
53618;SDS011;68717;53.040;18.488;2023-03-23T00:28:39;39.13;;;26.50;;
53618;SDS011;68717;53.040;18.488;2023-03-23T00:28:51;38.15;;;26.40;;
53618;SDS011;68717;53.040;18.488;2023-03-23T00:29:03;36.28;;;25.65;;
53618;SDS011;68717;53.040;18.488;2023-03-23T00:29:16;36.50;;;25.65;;
53618;SDS011;68717;53.040;18.488;2023-03-23T00:29:32;37.25;;;25.85;;
53618;SDS011;68717;53.040;18.488;2023-03-23T00:29:44;38.38;;;25.63;;
53618;SDS011;68717;53.040;18.488;2023-03-23T00:29:56;39.60;;;26.13;;
53618;SDS011;68717;53.040;18.488;2023-03-23T00:30:08;39.92;;;26.95;;
53618;SDS011;68717;53.040;18.488;2023-03-23T00:30:20;40.45;;;27.75;;
53618;SDS011;68717;53.040;18.488;2023-03-23T00:30:34;40.65;;;27.60;;
53618;SDS011;68717;53.040;18.488;2023-03-23T00:30:46;39.35;;;26.80;;
53618;SDS011;68717;53.040;18.488;2023-03-23T00:31:00;40.13;;;27.35;;
53618;SDS011;68717;53.040;18.488;2023-03-23T00:31:13;39.20;;;27.50;;
53618;SDS011;68717;53.040;18.488;2023-03-23T00:31:25;37.75;;;27.05;;
53618;SDS011;68717;53.040;18.488;2023-03-23T00:31:42;37.53;;;26.88;;
53618;SDS011;68717;53.040;18.488;2023-03-23T00:31:57;37.50;;;26.45;;
53618;SDS011;68717;53.040;18.488;2023-03-23T00:32:12;37.33;;;25.77;;
53618;SDS011;68717;53.040;18.488;2023-03-23T00:32:25;36.85;;;25.92;;
53618;SDS011;68717;53.040;18.488;2023-03-23T00:32:39;38.47;;;26.50;;
53618;SDS011;68717;53.040;18.488;2023-03-23T00:32:52;38.53;;;26.88;;
53618;SDS011;68717;53.040;18.488;2023-03-23T00:33:03;38.78;;;26.98;;
53618;SDS011;68717;53.040;18.488;2023-03-23T00:33:16;37.53;;;26.92;;
53618;SDS011;68717;53.040;18.488;2023-03-23T00:33:28;38.33;;;27.13;;
53618;SDS011;68717;53.040;18.488;2023-03-23T00:33:41;38.25;;;27.00;;
53618;SDS011;68717;53.040;18.488;2023-03-23T00:33:53;37.80;;;26.45;;
53618;SDS011;68717;53.040;18.488;2023-03-23T00:34:05;37.08;;;26.25;;
53618;SDS011;68717;53.040;18.488;2023-03-23T00:34:19;36.70;;;26.17;;
53618;SDS011;68717;53.040;18.488;2023-03-23T00:34:33;37.85;;;26.48;;
53618;SDS011;68717;53.040;18.488;2023-03-23T00:34:46;38.33;;;26.77;;
53618;SDS011;68717;53.040;18.488;2023-03-23T00:34:59;37.53;;;26.40;;
53618;SDS011;68717;53.040;18.488;2023-03-23T00:35:11;37.10;;;26.63;;
53618;SDS011;68717;53.040;18.488;2023-03-23T00:35:23;38.30;;;26.92;;
53618;SDS011;68717;53.040;18.488;2023-03-23T00:35:35;38.33;;;26.75;;
53618;SDS011;68717;53.040;18.488;2023-03-23T00:35:47;38.03;;;26.30;;
53618;SDS011;68717;53.040;18.488;2023-03-23T00:36:00;38.53;;;26.33;;
53618;SDS011;68717;53.040;18.488;2023-03-23T00:36:12;38.92;;;26.38;;
53618;SDS011;68717;53.040;18.488;2023-03-23T00:36:24;37.88;;;26.40;;
53618;SDS011;68717;53.040;18.488;2023-03-23T00:36:37;38.47;;;26.55;;
53618;SDS011;68717;53.040;18.488;2023-03-23T00:36:54;39.30;;;27.33;;
53618;SDS011;68717;53.040;18.488;2023-03-23T00:37:07;40.58;;;27.85;;
53618;SDS011;68717;53.040;18.488;2023-03-23T00:37:20;40.80;;;27.15;;
53618;SDS011;68717;53.040;18.488;2023-03-23T00:37:32;39.78;;;26.92;;
53618;SDS011;68717;53.040;18.488;2023-03-23T00:37:43;38.95;;;26.98;;
53618;SDS011;68717;53.040;18.488;2023-03-23T00:37:55;38.88;;;26.58;;
53618;SDS011;68717;53.040;18.488;2023-03-23T00:38:07;39.83;;;26.48;;
53618;SDS011;68717;53.040;18.488;2023-03-23T00:38:19;39.42;;;26.85;;
53618;SDS011;68717;53.040;18.488;2023-03-23T00:38:31;39.15;;;27.05;;
53618;SDS011;68717;53.040;18.488;2023-03-23T00:38:44;42.30;;;27.35;;
53618;SDS011;68717;53.040;18.488;2023-03-23T00:38:57;40.85;;;26.77;;
53618;SDS011;68717;53.040;18.488;2023-03-23T00:39:10;37.97;;;25.95;;
53618;SDS011;68717;53.040;18.488;2023-03-23T00:39:21;36.72;;;25.88;;
53618;SDS011;68717;53.040;18.488;2023-03-23T00:39:38;36.60;;;26.25;;
53618;SDS011;68717;53.040;18.488;2023-03-23T00:39:56;37.45;;;26.25;;
53618;SDS011;68717;53.040;18.488;2023-03-23T00:40:08;38.10;;;25.92;;
53618;SDS011;68717;53.040;18.488;2023-03-23T00:40:23;37.80;;;25.98;;
53618;SDS011;68717;53.040;18.488;2023-03-23T00:40:35;37.38;;;25.90;;
53618;SDS011;68717;53.040;18.488;2023-03-23T00:40:46;37.72;;;25.88;;
53618;SDS011;68717;53.040;18.488;2023-03-23T00:40:58;37.67;;;25.95;;
53618;SDS011;68717;53.040;18.488;2023-03-23T00:41:13;39.60;;;26.20;;
53618;SDS011;68717;53.040;18.488;2023-03-23T00:41:26;41.55;;;26.35;;
53618;SDS011;68717;53.040;18.488;2023-03-23T00:41:38;40.72;;;26.33;;
53618;SDS011;68717;53.040;18.488;2023-03-23T00:41:50;39.47;;;26.27;;
53618;SDS011;68717;53.040;18.488;2023-03-23T00:42:03;38.35;;;25.77;;
53618;SDS011;68717;53.040;18.488;2023-03-23T00:42:15;39.17;;;26.42;;
53618;SDS011;68717;53.040;18.488;2023-03-23T00:42:27;38.75;;;26.63;;
53618;SDS011;68717;53.040;18.488;2023-03-23T00:42:39;38.75;;;26.95;;
53618;SDS011;68717;53.040;18.488;2023-03-23T00:42:51;39.30;;;26.95;;
53618;SDS011;68717;53.040;18.488;2023-03-23T00:43:03;39.90;;;26.58;;
53618;SDS011;68717;53.040;18.488;2023-03-23T00:43:15;39.13;;;26.02;;
53618;SDS011;68717;53.040;18.488;2023-03-23T00:43:28;37.30;;;25.95;;
53618;SDS011;68717;53.040;18.488;2023-03-23T00:43:41;40.38;;;26.45;;
53618;SDS011;68717;53.040;18.488;2023-03-23T00:43:52;42.28;;;26.83;;
53618;SDS011;68717;53.040;18.488;2023-03-23T00:44:04;40.72;;;26.85;;
53618;SDS011;68717;53.040;18.488;2023-03-23T00:44:16;39.13;;;26.35;;
53618;SDS011;68717;53.040;18.488;2023-03-23T00:44:30;38.28;;;25.75;;
53618;SDS011;68717;53.040;18.488;2023-03-23T00:44:44;37.25;;;25.63;;
53618;SDS011;68717;53.040;18.488;2023-03-23T00:44:56;37.92;;;25.50;;
53618;SDS011;68717;53.040;18.488;2023-03-23T00:45:11;39.42;;;25.88;;
53618;SDS011;68717;53.040;18.488;2023-03-23T00:45:23;39.78;;;26.10;;
53618;SDS011;68717;53.040;18.488;2023-03-23T00:45:35;39.67;;;26.27;;
53618;SDS011;68717;53.040;18.488;2023-03-23T00:45:47;38.28;;;26.33;;
53618;SDS011;68717;53.040;18.488;2023-03-23T00:46:03;37.58;;;26.02;;
53618;SDS011;68717;53.040;18.488;2023-03-23T00:46:19;37.75;;;25.67;;
53618;SDS011;68717;53.040;18.488;2023-03-23T00:46:32;39.08;;;26.45;;
53618;SDS011;68717;53.040;18.488;2023-03-23T00:46:44;39.38;;;26.60;;
53618;SDS011;68717;53.040;18.488;2023-03-23T00:46:55;38.90;;;26.75;;
53618;SDS011;68717;53.040;18.488;2023-03-23T00:47:07;38.90;;;26.23;;
53618;SDS011;68717;53.040;18.488;2023-03-23T00:47:21;37.38;;;25.17;;
53618;SDS011;68717;53.040;18.488;2023-03-23T00:47:33;35.97;;;25.40;;
53618;SDS011;68717;53.040;18.488;2023-03-23T00:47:47;36.13;;;25.67;;
53618;SDS011;68717;53.040;18.488;2023-03-23T00:48:02;36.33;;;25.83;;
53618;SDS011;68717;53.040;18.488;2023-03-23T00:48:15;39.00;;;26.58;;
53618;SDS011;68717;53.040;18.488;2023-03-23T00:48:27;39.63;;;26.60;;
53618;SDS011;68717;53.040;18.488;2023-03-23T00:48:40;39.88;;;26.38;;
53618;SDS011;68717;53.040;18.488;2023-03-23T00:48:55;39.30;;;26.35;;
53618;SDS011;68717;53.040;18.488;2023-03-23T00:49:07;38.97;;;26.45;;
53618;SDS011;68717;53.040;18.488;2023-03-23T00:49:20;39.22;;;26.50;;
53618;SDS011;68717;53.040;18.488;2023-03-23T00:49:36;38.70;;;26.65;;
53618;SDS011;68717;53.040;18.488;2023-03-23T00:49:48;39.10;;;26.80;;
53618;SDS011;68717;53.040;18.488;2023-03-23T00:50:01;39.15;;;26.05;;
53618;SDS011;68717;53.040;18.488;2023-03-23T00:50:12;39.90;;;26.20;;
53618;SDS011;68717;53.040;18.488;2023-03-23T00:50:24;41.08;;;26.50;;
53618;SDS011;68717;53.040;18.488;2023-03-23T00:50:36;39.38;;;26.50;;
53618;SDS011;68717;53.040;18.488;2023-03-23T00:50:48;35.25;;;25.83;;
53618;SDS011;68717;53.040;18.488;2023-03-23T00:51:01;36.30;;;26.23;;
53618;SDS011;68717;53.040;18.488;2023-03-23T00:51:17;36.95;;;26.48;;
53618;SDS011;68717;53.040;18.488;2023-03-23T00:51:28;37.70;;;26.40;;
53618;SDS011;68717;53.040;18.488;2023-03-23T00:51:40;38.40;;;26.55;;
53618;SDS011;68717;53.040;18.488;2023-03-23T00:51:53;38.47;;;26.20;;
53618;SDS011;68717;53.040;18.488;2023-03-23T00:52:07;36.20;;;25.42;;
53618;SDS011;68717;53.040;18.488;2023-03-23T00:52:19;35.80;;;25.23;;
53618;SDS011;68717;53.040;18.488;2023-03-23T00:52:31;37.60;;;25.40;;
53618;SDS011;68717;53.040;18.488;2023-03-23T00:52:42;38.50;;;25.65;;
53618;SDS011;68717;53.040;18.488;2023-03-23T00:52:54;39.88;;;26.13;;
53618;SDS011;68717;53.040;18.488;2023-03-23T00:53:07;40.00;;;26.55;;
53618;SDS011;68717;53.040;18.488;2023-03-23T00:53:19;37.97;;;26.05;;
53618;SDS011;68717;53.040;18.488;2023-03-23T00:53:31;37.42;;;25.85;;
53618;SDS011;68717;53.040;18.488;2023-03-23T00:53:43;38.50;;;26.27;;
53618;SDS011;68717;53.040;18.488;2023-03-23T00:53:55;38.05;;;26.40;;
53618;SDS011;68717;53.040;18.488;2023-03-23T00:54:08;38.38;;;26.35;;
53618;SDS011;68717;53.040;18.488;2023-03-23T00:54:19;38.42;;;26.40;;
53618;SDS011;68717;53.040;18.488;2023-03-23T00:54:31;38.70;;;26.42;;
53618;SDS011;68717;53.040;18.488;2023-03-23T00:54:44;36.88;;;25.65;;
53618;SDS011;68717;53.040;18.488;2023-03-23T00:54:56;38.67;;;25.85;;
53618;SDS011;68717;53.040;18.488;2023-03-23T00:55:07;37.88;;;25.70;;
53618;SDS011;68717;53.040;18.488;2023-03-23T00:55:19;37.97;;;25.70;;
53618;SDS011;68717;53.040;18.488;2023-03-23T00:55:31;37.15;;;25.38;;
53618;SDS011;68717;53.040;18.488;2023-03-23T00:55:45;37.42;;;24.83;;
53618;SDS011;68717;53.040;18.488;2023-03-23T00:55:58;37.28;;;24.92;;
53618;SDS011;68717;53.040;18.488;2023-03-23T00:56:10;37.10;;;25.35;;
53618;SDS011;68717;53.040;18.488;2023-03-23T00:56:21;37.10;;;25.60;;
53618;SDS011;68717;53.040;18.488;2023-03-23T00:56:34;36.60;;;25.45;;
53618;SDS011;68717;53.040;18.488;2023-03-23T00:56:46;37.38;;;25.52;;
53618;SDS011;68717;53.040;18.488;2023-03-23T00:56:58;37.33;;;24.90;;
53618;SDS011;68717;53.040;18.488;2023-03-23T00:57:11;36.90;;;25.10;;
53618;SDS011;68717;53.040;18.488;2023-03-23T00:57:22;36.33;;;25.15;;
53618;SDS011;68717;53.040;18.488;2023-03-23T00:57:35;38.75;;;26.10;;
53618;SDS011;68717;53.040;18.488;2023-03-23T00:57:46;38.13;;;25.98;;
53618;SDS011;68717;53.040;18.488;2023-03-23T00:58:01;37.95;;;25.38;;
53618;SDS011;68717;53.040;18.488;2023-03-23T00:58:13;39.03;;;25.80;;
53618;SDS011;68717;53.040;18.488;2023-03-23T00:58:25;40.25;;;25.90;;
53618;SDS011;68717;53.040;18.488;2023-03-23T00:58:38;40.60;;;25.98;;
53618;SDS011;68717;53.040;18.488;2023-03-23T00:58:49;38.78;;;25.83;;
53618;SDS011;68717;53.040;18.488;2023-03-23T00:59:01;38.53;;;25.20;;
53618;SDS011;68717;53.040;18.488;2023-03-23T00:59:13;37.97;;;25.17;;
53618;SDS011;68717;53.040;18.488;2023-03-23T00:59:25;37.97;;;25.45;;
53618;SDS011;68717;53.040;18.488;2023-03-23T00:59:36;35.92;;;25.75;;
53618;SDS011;68717;53.040;18.488;2023-03-23T00:59:48;36.45;;;25.73;;
53618;SDS011;68717;53.040;18.488;2023-03-23T00:59:59;37.42;;;25.95;;
53618;SDS011;68717;53.040;18.488;2023-03-23T01:00:11;36.80;;;25.35;;
53618;SDS011;68717;53.040;18.488;2023-03-23T01:00:25;33.80;;;24.20;;
53618;SDS011;68717;53.040;18.488;2023-03-23T01:00:37;33.90;;;24.25;;
53618;SDS011;68717;53.040;18.488;2023-03-23T01:00:49;35.53;;;25.15;;
53618;SDS011;68717;53.040;18.488;2023-03-23T01:01:01;36.63;;;25.40;;
53618;SDS011;68717;53.040;18.488;2023-03-23T01:01:13;36.00;;;25.17;;
53618;SDS011;68717;53.040;18.488;2023-03-23T01:01:25;35.40;;;25.33;;
53618;SDS011;68717;53.040;18.488;2023-03-23T01:01:37;36.78;;;25.25;;
53618;SDS011;68717;53.040;18.488;2023-03-23T01:01:50;36.15;;;24.90;;
53618;SDS011;68717;53.040;18.488;2023-03-23T01:02:01;37.03;;;25.10;;
53618;SDS011;68717;53.040;18.488;2023-03-23T01:02:13;36.53;;;25.77;;
53618;SDS011;68717;53.040;18.488;2023-03-23T01:02:26;35.83;;;25.55;;
53618;SDS011;68717;53.040;18.488;2023-03-23T01:02:37;36.78;;;25.67;;
53618;SDS011;68717;53.040;18.488;2023-03-23T01:02:52;35.55;;;25.35;;
53618;SDS011;68717;53.040;18.488;2023-03-23T01:03:05;36.83;;;25.08;;
53618;SDS011;68717;53.040;18.488;2023-03-23T01:03:17;37.00;;;24.77;;
53618;SDS011;68717;53.040;18.488;2023-03-23T01:03:29;36.45;;;24.83;;
53618;SDS011;68717;53.040;18.488;2023-03-23T01:03:40;37.60;;;25.40;;
53618;SDS011;68717;53.040;18.488;2023-03-23T01:03:52;36.80;;;25.30;;
53618;SDS011;68717;53.040;18.488;2023-03-23T01:04:11;34.15;;;24.83;;
53618;SDS011;68717;53.040;18.488;2023-03-23T01:04:23;35.50;;;24.92;;
53618;SDS011;68717;53.040;18.488;2023-03-23T01:04:34;37.15;;;25.25;;
53618;SDS011;68717;53.040;18.488;2023-03-23T01:04:50;37.30;;;25.52;;
53618;SDS011;68717;53.040;18.488;2023-03-23T01:05:03;38.05;;;25.67;;
53618;SDS011;68717;53.040;18.488;2023-03-23T01:05:15;37.38;;;25.88;;
53618;SDS011;68717;53.040;18.488;2023-03-23T01:05:27;37.15;;;26.00;;
53618;SDS011;68717;53.040;18.488;2023-03-23T01:05:42;38.67;;;26.40;;
53618;SDS011;68717;53.040;18.488;2023-03-23T01:05:54;38.75;;;26.45;;
53618;SDS011;68717;53.040;18.488;2023-03-23T01:06:07;38.08;;;26.23;;
53618;SDS011;68717;53.040;18.488;2023-03-23T01:06:23;37.97;;;26.08;;
53618;SDS011;68717;53.040;18.488;2023-03-23T01:06:35;37.78;;;26.10;;
53618;SDS011;68717;53.040;18.488;2023-03-23T01:06:50;37.28;;;25.77;;
53618;SDS011;68717;53.040;18.488;2023-03-23T01:07:02;37.00;;;25.77;;
53618;SDS011;68717;53.040;18.488;2023-03-23T01:07:15;36.65;;;25.83;;
53618;SDS011;68717;53.040;18.488;2023-03-23T01:07:28;36.60;;;26.10;;
53618;SDS011;68717;53.040;18.488;2023-03-23T01:07:42;37.90;;;26.40;;
53618;SDS011;68717;53.040;18.488;2023-03-23T01:07:55;39.15;;;26.13;;
53618;SDS011;68717;53.040;18.488;2023-03-23T01:08:07;39.00;;;26.15;;
53618;SDS011;68717;53.040;18.488;2023-03-23T01:08:19;38.28;;;26.60;;
53618;SDS011;68717;53.040;18.488;2023-03-23T01:08:32;36.97;;;26.55;;
53618;SDS011;68717;53.040;18.488;2023-03-23T01:08:43;36.80;;;26.40;;
53618;SDS011;68717;53.040;18.488;2023-03-23T01:08:56;37.85;;;26.77;;
53618;SDS011;68717;53.040;18.488;2023-03-23T01:09:08;37.60;;;26.50;;
53618;SDS011;68717;53.040;18.488;2023-03-23T01:09:25;36.60;;;25.63;;
53618;SDS011;68717;53.040;18.488;2023-03-23T01:09:37;36.20;;;25.63;;
53618;SDS011;68717;53.040;18.488;2023-03-23T01:09:50;36.55;;;26.15;;
53618;SDS011;68717;53.040;18.488;2023-03-23T01:10:05;36.60;;;26.10;;
53618;SDS011;68717;53.040;18.488;2023-03-23T01:10:17;36.15;;;25.77;;
53618;SDS011;68717;53.040;18.488;2023-03-23T01:10:29;36.28;;;25.95;;
53618;SDS011;68717;53.040;18.488;2023-03-23T01:10:43;36.60;;;25.83;;
53618;SDS011;68717;53.040;18.488;2023-03-23T01:11:01;36.47;;;26.33;;
53618;SDS011;68717;53.040;18.488;2023-03-23T01:11:15;38.28;;;26.80;;
53618;SDS011;68717;53.040;18.488;2023-03-23T01:11:27;39.17;;;26.98;;
53618;SDS011;68717;53.040;18.488;2023-03-23T01:11:39;38.63;;;26.77;;
53618;SDS011;68717;53.040;18.488;2023-03-23T01:11:50;38.38;;;26.42;;
53618;SDS011;68717;53.040;18.488;2023-03-23T01:12:02;37.40;;;25.75;;
53618;SDS011;68717;53.040;18.488;2023-03-23T01:12:14;39.33;;;26.00;;
53618;SDS011;68717;53.040;18.488;2023-03-23T01:12:27;38.90;;;26.48;;
53618;SDS011;68717;53.040;18.488;2023-03-23T01:12:38;39.00;;;26.88;;
53618;SDS011;68717;53.040;18.488;2023-03-23T01:12:50;38.38;;;26.70;;
53618;SDS011;68717;53.040;18.488;2023-03-23T01:13:01;38.08;;;26.48;;
53618;SDS011;68717;53.040;18.488;2023-03-23T01:13:13;38.22;;;26.90;;
53618;SDS011;68717;53.040;18.488;2023-03-23T01:13:25;39.40;;;26.92;;
53618;SDS011;68717;53.040;18.488;2023-03-23T01:13:37;40.63;;;27.40;;
53618;SDS011;68717;53.040;18.488;2023-03-23T01:13:48;40.92;;;27.27;;
53618;SDS011;68717;53.040;18.488;2023-03-23T01:14:00;39.67;;;26.63;;
53618;SDS011;68717;53.040;18.488;2023-03-23T01:14:14;38.35;;;26.60;;
53618;SDS011;68717;53.040;18.488;2023-03-23T01:14:27;38.65;;;26.58;;
53618;SDS011;68717;53.040;18.488;2023-03-23T01:14:39;38.78;;;26.13;;
53618;SDS011;68717;53.040;18.488;2023-03-23T01:14:50;36.97;;;25.55;;
53618;SDS011;68717;53.040;18.488;2023-03-23T01:15:02;36.63;;;25.35;;
53618;SDS011;68717;53.040;18.488;2023-03-23T01:15:14;35.75;;;25.25;;
53618;SDS011;68717;53.040;18.488;2023-03-23T01:15:27;34.90;;;25.17;;
53618;SDS011;68717;53.040;18.488;2023-03-23T01:15:41;36.30;;;25.27;;
53618;SDS011;68717;53.040;18.488;2023-03-23T01:15:53;37.42;;;25.27;;
53618;SDS011;68717;53.040;18.488;2023-03-23T01:16:05;37.75;;;25.35;;
53618;SDS011;68717;53.040;18.488;2023-03-23T01:16:17;38.75;;;26.08;;
53618;SDS011;68717;53.040;18.488;2023-03-23T01:16:29;38.67;;;26.08;;
53618;SDS011;68717;53.040;18.488;2023-03-23T01:16:41;36.22;;;25.42;;
53618;SDS011;68717;53.040;18.488;2023-03-23T01:16:52;36.85;;;25.25;;
53618;SDS011;68717;53.040;18.488;2023-03-23T01:17:05;37.42;;;25.42;;
53618;SDS011;68717;53.040;18.488;2023-03-23T01:17:17;38.13;;;25.80;;
53618;SDS011;68717;53.040;18.488;2023-03-23T01:17:31;37.17;;;25.45;;
53618;SDS011;68717;53.040;18.488;2023-03-23T01:17:42;36.78;;;25.63;;
53618;SDS011;68717;53.040;18.488;2023-03-23T01:17:55;36.53;;;25.80;;
53618;SDS011;68717;53.040;18.488;2023-03-23T01:18:08;35.38;;;25.40;;
53618;SDS011;68717;53.040;18.488;2023-03-23T01:18:20;35.92;;;24.70;;
53618;SDS011;68717;53.040;18.488;2023-03-23T01:18:32;36.03;;;24.70;;
53618;SDS011;68717;53.040;18.488;2023-03-23T01:18:44;37.08;;;25.70;;
53618;SDS011;68717;53.040;18.488;2023-03-23T01:18:56;36.70;;;26.05;;
53618;SDS011;68717;53.040;18.488;2023-03-23T01:19:07;36.55;;;25.55;;